createdAt,value
2023-03-23T16:01:16.696Z,62.87
2023-03-23T16:06:24.903Z,62.33
2023-03-23T16:11:29.276Z,63.09
2023-03-23T16:16:34.981Z,64.55
2023-03-23T16:21:36.505Z,65.53
2023-03-23T16:26:38.208Z,65.34
2023-03-23T16:31:41.169Z,65.66
2023-03-23T16:36:42.613Z,65.90
2023-03-23T16:41:44.088Z,66.38
2023-03-23T16:46:46.918Z,66.13
2023-03-23T16:51:48.379Z,66.46
2023-03-23T16:56:50.437Z,66.58
2023-03-23T17:01:53.369Z,66.79
2023-03-23T17:06:54.923Z,66.73
2023-03-23T17:11:56.373Z,67.29
2023-03-23T17:16:59.925Z,66.96
2023-03-23T17:22:01.642Z,67.33
2023-03-23T17:27:03.311Z,67.29
2023-03-23T17:32:06.254Z,67.19
2023-03-23T17:37:08.373Z,67.45
2023-03-23T17:42:10.103Z,66.99
2023-03-23T17:47:12.931Z,66.79
2023-03-23T17:52:14.883Z,67.13
2023-03-23T17:57:16.474Z,66.54
2023-03-23T18:02:19.330Z,69.47
2023-03-23T18:07:21.842Z,69.74
2023-03-23T18:12:23.391Z,69.50
2023-03-23T18:17:26.895Z,67.57
2023-03-23T18:22:28.536Z,66.81
2023-03-23T18:27:30.118Z,66.68
2023-03-23T18:32:35.205Z,67.86
2023-03-23T18:37:37.066Z,68.04
2023-03-23T18:42:40.580Z,70.33
2023-03-23T18:47:43.678Z,69.94
2023-03-23T18:52:45.221Z,70.10
2023-03-23T18:57:46.684Z,71.27
2023-03-23T19:02:49.682Z,71.06
2023-03-23T19:07:53.786Z,71.63
2023-03-23T19:12:55.485Z,70.86
2023-03-23T19:17:58.492Z,70.98
2023-03-23T19:23:00.339Z,71.85
2023-03-23T19:33:07.696Z,72.91
2023-03-23T19:38:09.230Z,74.52
2023-03-23T19:43:10.823Z,76.06
2023-03-23T19:48:13.707Z,76.63
2023-03-23T19:53:15.935Z,76.84
2023-03-23T19:58:17.768Z,78.65
2023-03-23T20:03:21.512Z,78.94
2023-03-23T20:08:23.279Z,77.62
2023-03-23T20:13:24.847Z,77.31
2023-03-23T20:18:29.156Z,78.99
2023-03-23T20:23:31.188Z,76.88
2023-03-23T20:28:32.943Z,75.76
2023-03-23T20:33:36.648Z,75.77
2023-03-23T20:38:39.424Z,76.79
2023-03-23T20:43:43.082Z,76.43
2023-03-23T20:48:45.965Z,76.62
2023-03-23T20:53:47.527Z,77.40
2023-03-23T20:58:49.128Z,76.60
2023-03-23T21:03:52.630Z,77.56
2023-03-23T21:08:54.964Z,76.61
2023-03-23T21:13:56.584Z,76.37
2023-03-23T21:18:59.734Z,77.01
2023-03-23T21:24:01.491Z,77.31
2023-03-23T21:29:03.530Z,78.64
2023-03-23T21:34:07.006Z,78.93
2023-03-23T21:39:08.520Z,77.70
2023-03-23T21:44:10.067Z,77.30
2023-03-23T21:49:13.229Z,77.62
2023-03-23T21:54:14.746Z,77.55
2023-03-23T21:59:16.214Z,77.51
2023-03-23T22:04:19.550Z,77.85
2023-03-23T22:09:21.090Z,77.33
2023-03-23T22:14:22.604Z,78.04
2023-03-23T22:19:25.548Z,78.16
2023-03-23T22:24:27.338Z,79.17
2023-03-23T22:29:28.813Z,80.42
2023-03-23T22:34:31.617Z,80.38
2023-03-23T22:39:33.095Z,80.60
2023-03-23T22:44:34.630Z,80.78
2023-03-23T22:49:37.473Z,81.03
2023-03-23T22:54:39.031Z,81.09
2023-03-23T22:59:40.502Z,81.17
2023-03-23T23:04:43.309Z,79.83
2023-03-23T23:09:45.863Z,80.88
2023-03-23T23:14:47.321Z,78.94
2023-03-23T23:19:50.222Z,78.34
2023-03-23T23:24:51.911Z,78.01
2023-03-23T23:29:53.432Z,78.63
2023-03-23T23:34:56.419Z,78.82
2023-03-23T23:39:57.941Z,78.67
2023-03-23T23:44:59.498Z,80.02
2023-03-23T23:50:02.636Z,80.21
2023-03-23T23:55:05.422Z,80.24
